sensor_id;sensor_type;location;lat;lon;timestamp;P1;durP1;ratioP1;P2;durP2;ratioP2
55813;SDS011;65494;42.818;0.404;2023-11-19T00:01:44;13.40;;;6.13;;
55813;SDS011;65494;42.818;0.404;2023-11-19T00:04:12;19.42;;;7.55;;
55813;SDS011;65494;42.818;0.404;2023-11-19T00:06:38;11.38;;;4.38;;
55813;SDS011;65494;42.818;0.404;2023-11-19T00:09:04;11.43;;;5.00;;
55813;SDS011;65494;42.818;0.404;2023-11-19T00:11:31;20.73;;;9.88;;
55813;SDS011;65494;42.818;0.404;2023-11-19T00:13:57;10.05;;;3.72;;
55813;SDS011;65494;42.818;0.404;2023-11-19T00:16:23;7.05;;;3.25;;
55813;SDS011;65494;42.818;0.404;2023-11-19T00:18:49;12.95;;;6.18;;
55813;SDS011;65494;42.818;0.404;2023-11-19T00:21:15;7.90;;;2.50;;
55813;SDS011;65494;42.818;0.404;2023-11-19T00:23:41;9.93;;;3.55;;
55813;SDS011;65494;42.818;0.404;2023-11-19T00:26:08;11.25;;;4.22;;
55813;SDS011;65494;42.818;0.404;2023-11-19T00:28:34;29.10;;;13.88;;
55813;SDS011;65494;42.818;0.404;2023-11-19T00:31:03;39.67;;;19.55;;
55813;SDS011;65494;42.818;0.404;2023-11-19T00:33:29;35.70;;;17.45;;
55813;SDS011;65494;42.818;0.404;2023-11-19T00:35:56;23.38;;;10.52;;
55813;SDS011;65494;42.818;0.404;2023-11-19T00:38:22;11.77;;;4.60;;
55813;SDS011;65494;42.818;0.404;2023-11-19T00:40:49;8.95;;;3.78;;
55813;SDS011;65494;42.818;0.404;2023-11-19T00:43:15;6.82;;;2.28;;
55813;SDS011;65494;42.818;0.404;2023-11-19T00:45:43;4.78;;;1.10;;
55813;SDS011;65494;42.818;0.404;2023-11-19T00:48:09;1.10;;;0.70;;
55813;SDS011;65494;42.818;0.404;2023-11-19T00:50:37;8.52;;;3.40;;
55813;SDS011;65494;42.818;0.404;2023-11-19T00:53:07;8.18;;;3.65;;
55813;SDS011;65494;42.818;0.404;2023-11-19T00:55:33;10.15;;;3.00;;
55813;SDS011;65494;42.818;0.404;2023-11-19T00:57:59;7.47;;;3.80;;
55813;SDS011;65494;42.818;0.404;2023-11-19T01:00:25;7.13;;;3.10;;
55813;SDS011;65494;42.818;0.404;2023-11-19T01:02:52;6.72;;;2.80;;
55813;SDS011;65494;42.818;0.404;2023-11-19T01:05:19;6.05;;;2.35;;
55813;SDS011;65494;42.818;0.404;2023-11-19T01:07:48;9.60;;;2.67;;
55813;SDS011;65494;42.818;0.404;2023-11-19T01:10:15;5.35;;;2.22;;
55813;SDS011;65494;42.818;0.404;2023-11-19T01:12:41;8.20;;;2.65;;
55813;SDS011;65494;42.818;0.404;2023-11-19T01:15:12;5.38;;;2.65;;
55813;SDS011;65494;42.818;0.404;2023-11-19T01:17:43;5.43;;;2.42;;
55813;SDS011;65494;42.818;0.404;2023-11-19T01:20:15;5.80;;;2.25;;
55813;SDS011;65494;42.818;0.404;2023-11-19T01:22:41;5.75;;;2.38;;
55813;SDS011;65494;42.818;0.404;2023-11-19T01:25:08;6.38;;;2.55;;
55813;SDS011;65494;42.818;0.404;2023-11-19T01:27:35;5.72;;;2.10;;
55813;SDS011;65494;42.818;0.404;2023-11-19T01:30:03;6.43;;;1.75;;
55813;SDS011;65494;42.818;0.404;2023-11-19T01:32:32;8.85;;;2.70;;
55813;SDS011;65494;42.818;0.404;2023-11-19T01:34:58;6.55;;;2.40;;
55813;SDS011;65494;42.818;0.404;2023-11-19T01:37:26;6.43;;;2.55;;
55813;SDS011;65494;42.818;0.404;2023-11-19T01:39:52;9.10;;;2.92;;
55813;SDS011;65494;42.818;0.404;2023-11-19T01:42:18;6.93;;;2.08;;
55813;SDS011;65494;42.818;0.404;2023-11-19T01:44:54;8.75;;;2.25;;
55813;SDS011;65494;42.818;0.404;2023-11-19T01:47:25;8.45;;;2.53;;
55813;SDS011;65494;42.818;0.404;2023-11-19T01:49:51;9.02;;;2.45;;
55813;SDS011;65494;42.818;0.404;2023-11-19T01:52:18;4.57;;;2.17;;
55813;SDS011;65494;42.818;0.404;2023-11-19T01:54:45;6.03;;;2.00;;
55813;SDS011;65494;42.818;0.404;2023-11-19T01:57:13;8.93;;;2.72;;
55813;SDS011;65494;42.818;0.404;2023-11-19T01:59:41;59.67;;;14.32;;
55813;SDS011;65494;42.818;0.404;2023-11-19T02:02:16;14.10;;;3.50;;
55813;SDS011;65494;42.818;0.404;2023-11-19T02:04:46;9.05;;;2.95;;
55813;SDS011;65494;42.818;0.404;2023-11-19T02:07:13;26.27;;;6.00;;
55813;SDS011;65494;42.818;0.404;2023-11-19T02:09:42;15.60;;;5.00;;
55813;SDS011;65494;42.818;0.404;2023-11-19T02:12:08;13.02;;;4.25;;
55813;SDS011;65494;42.818;0.404;2023-11-19T02:14:36;17.05;;;4.90;;
55813;SDS011;65494;42.818;0.404;2023-11-19T02:17:03;10.23;;;3.63;;
55813;SDS011;65494;42.818;0.404;2023-11-19T02:19:31;4.97;;;1.85;;
55813;SDS011;65494;42.818;0.404;2023-11-19T02:21:57;4.70;;;1.35;;
55813;SDS011;65494;42.818;0.404;2023-11-19T02:24:23;4.25;;;1.90;;
55813;SDS011;65494;42.818;0.404;2023-11-19T02:27:05;4.72;;;1.90;;
55813;SDS011;65494;42.818;0.404;2023-11-19T02:29:35;3.92;;;1.60;;
55813;SDS011;65494;42.818;0.404;2023-11-19T02:32:02;4.72;;;1.23;;
55813;SDS011;65494;42.818;0.404;2023-11-19T02:34:28;5.15;;;1.92;;
55813;SDS011;65494;42.818;0.404;2023-11-19T02:36:54;9.40;;;2.60;;
55813;SDS011;65494;42.818;0.404;2023-11-19T02:39:20;7.85;;;2.78;;
55813;SDS011;65494;42.818;0.404;2023-11-19T02:41:48;5.97;;;2.28;;
55813;SDS011;65494;42.818;0.404;2023-11-19T02:44:16;5.65;;;1.95;;
55813;SDS011;65494;42.818;0.404;2023-11-19T02:46:42;6.05;;;1.80;;
55813;SDS011;65494;42.818;0.404;2023-11-19T02:49:08;2.95;;;1.25;;
55813;SDS011;65494;42.818;0.404;2023-11-19T02:51:35;2.92;;;1.38;;
55813;SDS011;65494;42.818;0.404;2023-11-19T02:54:01;3.90;;;1.90;;
55813;SDS011;65494;42.818;0.404;2023-11-19T02:56:28;5.65;;;1.90;;
55813;SDS011;65494;42.818;0.404;2023-11-19T02:58:59;5.05;;;1.58;;
55813;SDS011;65494;42.818;0.404;2023-11-19T03:01:33;3.33;;;1.27;;
55813;SDS011;65494;42.818;0.404;2023-11-19T03:04:01;2.40;;;0.68;;
55813;SDS011;65494;42.818;0.404;2023-11-19T03:06:27;11.55;;;3.20;;
55813;SDS011;65494;42.818;0.404;2023-11-19T03:08:54;10.00;;;3.97;;
55813;SDS011;65494;42.818;0.404;2023-11-19T03:11:21;7.25;;;3.25;;
55813;SDS011;65494;42.818;0.404;2023-11-19T03:13:47;5.20;;;2.00;;
55813;SDS011;65494;42.818;0.404;2023-11-19T03:16:13;3.78;;;1.42;;
55813;SDS011;65494;42.818;0.404;2023-11-19T03:18:39;5.07;;;1.95;;
55813;SDS011;65494;42.818;0.404;2023-11-19T03:21:06;3.80;;;1.40;;
55813;SDS011;65494;42.818;0.404;2023-11-19T03:23:33;2.70;;;1.33;;
55813;SDS011;65494;42.818;0.404;2023-11-19T03:26:00;0.80;;;0.65;;
55813;SDS011;65494;42.818;0.404;2023-11-19T03:28:29;1.20;;;0.57;;
55813;SDS011;65494;42.818;0.404;2023-11-19T03:30:55;4.43;;;1.40;;
55813;SDS011;65494;42.818;0.404;2023-11-19T03:33:21;6.13;;;1.75;;
55813;SDS011;65494;42.818;0.404;2023-11-19T03:35:50;4.70;;;1.95;;
55813;SDS011;65494;42.818;0.404;2023-11-19T03:38:17;3.90;;;1.40;;
55813;SDS011;65494;42.818;0.404;2023-11-19T03:40:44;2.90;;;1.40;;
55813;SDS011;65494;42.818;0.404;2023-11-19T03:43:11;3.00;;;0.88;;
55813;SDS011;65494;42.818;0.404;2023-11-19T03:45:39;0.80;;;0.57;;
55813;SDS011;65494;42.818;0.404;2023-11-19T03:48:05;1.67;;;0.90;;
55813;SDS011;65494;42.818;0.404;2023-11-19T03:50:31;5.03;;;1.05;;
55813;SDS011;65494;42.818;0.404;2023-11-19T03:52:57;2.78;;;1.10;;
55813;SDS011;65494;42.818;0.404;2023-11-19T03:55:23;1.75;;;0.80;;
55813;SDS011;65494;42.818;0.404;2023-11-19T03:57:50;3.58;;;0.77;;
55813;SDS011;65494;42.818;0.404;2023-11-19T04:00:16;0.98;;;0.55;;
55813;SDS011;65494;42.818;0.404;2023-11-19T04:02:42;0.90;;;0.70;;
55813;SDS011;65494;42.818;0.404;2023-11-19T04:05:08;3.22;;;0.80;;
55813;SDS011;65494;42.818;0.404;2023-11-19T04:07:35;4.50;;;1.30;;
55813;SDS011;65494;42.818;0.404;2023-11-19T04:10:02;4.20;;;1.60;;
55813;SDS011;65494;42.818;0.404;2023-11-19T04:12:28;2.67;;;1.05;;
55813;SDS011;65494;42.818;0.404;2023-11-19T04:14:54;1.55;;;0.90;;
55813;SDS011;65494;42.818;0.404;2023-11-19T04:17:21;1.42;;;0.70;;
55813;SDS011;65494;42.818;0.404;2023-11-19T04:19:48;1.45;;;1.08;;
55813;SDS011;65494;42.818;0.404;2023-11-19T04:22:14;3.25;;;1.60;;
55813;SDS011;65494;42.818;0.404;2023-11-19T04:24:40;5.25;;;1.45;;
55813;SDS011;65494;42.818;0.404;2023-11-19T04:27:09;2.20;;;1.05;;
55813;SDS011;65494;42.818;0.404;2023-11-19T04:29:35;1.60;;;0.90;;
55813;SDS011;65494;42.818;0.404;2023-11-19T04:32:01;2.53;;;0.98;;
55813;SDS011;65494;42.818;0.404;2023-11-19T04:34:27;2.92;;;1.50;;
55813;SDS011;65494;42.818;0.404;2023-11-19T04:36:53;2.08;;;1.17;;
55813;SDS011;65494;42.818;0.404;2023-11-19T04:39:21;2.20;;;0.80;;
55813;SDS011;65494;42.818;0.404;2023-11-19T04:41:48;3.38;;;0.90;;
55813;SDS011;65494;42.818;0.404;2023-11-19T04:44:14;2.88;;;0.80;;
55813;SDS011;65494;42.818;0.404;2023-11-19T04:46:41;3.58;;;1.00;;
55813;SDS011;65494;42.818;0.404;2023-11-19T04:49:11;1.27;;;0.60;;
55813;SDS011;65494;42.818;0.404;2023-11-19T04:51:43;0.47;;;0.43;;
55813;SDS011;65494;42.818;0.404;2023-11-19T04:54:12;1.33;;;0.57;;
55813;SDS011;65494;42.818;0.404;2023-11-19T04:56:38;1.60;;;0.70;;
55813;SDS011;65494;42.818;0.404;2023-11-19T04:59:04;0.98;;;0.60;;
55813;SDS011;65494;42.818;0.404;2023-11-19T05:01:31;2.55;;;1.33;;
55813;SDS011;65494;42.818;0.404;2023-11-19T05:03:58;3.75;;;1.20;;
55813;SDS011;65494;42.818;0.404;2023-11-19T05:06:27;2.03;;;0.73;;
55813;SDS011;65494;42.818;0.404;2023-11-19T05:08:58;3.40;;;1.00;;
55813;SDS011;65494;42.818;0.404;2023-11-19T05:11:26;1.77;;;0.85;;
55813;SDS011;65494;42.818;0.404;2023-11-19T05:13:53;2.90;;;1.20;;
55813;SDS011;65494;42.818;0.404;2023-11-19T05:16:19;2.05;;;1.02;;
55813;SDS011;65494;42.818;0.404;2023-11-19T05:18:46;6.15;;;1.35;;
55813;SDS011;65494;42.818;0.404;2023-11-19T05:21:32;2.17;;;0.80;;
55813;SDS011;65494;42.818;0.404;2023-11-19T05:23:59;5.35;;;0.75;;
55813;SDS011;65494;42.818;0.404;2023-11-19T05:26:25;5.65;;;1.58;;
55813;SDS011;65494;42.818;0.404;2023-11-19T05:28:51;3.72;;;1.85;;
55813;SDS011;65494;42.818;0.404;2023-11-19T05:31:25;4.15;;;1.02;;
55813;SDS011;65494;42.818;0.404;2023-11-19T05:33:52;0.98;;;0.80;;
55813;SDS011;65494;42.818;0.404;2023-11-19T05:36:18;3.53;;;1.73;;
55813;SDS011;65494;42.818;0.404;2023-11-19T05:38:44;8.30;;;3.20;;
55813;SDS011;65494;42.818;0.404;2023-11-19T05:41:10;6.47;;;2.35;;
55813;SDS011;65494;42.818;0.404;2023-11-19T05:43:37;5.53;;;2.67;;
55813;SDS011;65494;42.818;0.404;2023-11-19T05:46:05;16.05;;;8.63;;
55813;SDS011;65494;42.818;0.404;2023-11-19T05:48:32;6.63;;;2.05;;
55813;SDS011;65494;42.818;0.404;2023-11-19T05:50:58;3.15;;;1.30;;
55813;SDS011;65494;42.818;0.404;2023-11-19T05:53:25;3.55;;;1.10;;
55813;SDS011;65494;42.818;0.404;2023-11-19T05:55:53;0.98;;;0.57;;
55813;SDS011;65494;42.818;0.404;2023-11-19T05:58:25;0.63;;;0.57;;
55813;SDS011;65494;42.818;0.404;2023-11-19T06:00:51;0.95;;;0.77;;
55813;SDS011;65494;42.818;0.404;2023-11-19T06:03:18;9.85;;;3.95;;
55813;SDS011;65494;42.818;0.404;2023-11-19T06:05:44;0.90;;;0.85;;
55813;SDS011;65494;42.818;0.404;2023-11-19T06:08:12;1.35;;;0.80;;
55813;SDS011;65494;42.818;0.404;2023-11-19T06:10:43;2.50;;;0.70;;
55813;SDS011;65494;42.818;0.404;2023-11-19T06:13:12;1.10;;;0.63;;
55813;SDS011;65494;42.818;0.404;2023-11-19T06:15:41;0.50;;;0.50;;
55813;SDS011;65494;42.818;0.404;2023-11-19T06:18:07;1.70;;;1.10;;
55813;SDS011;65494;42.818;0.404;2023-11-19T06:20:33;3.20;;;2.08;;
55813;SDS011;65494;42.818;0.404;2023-11-19T06:23:00;2.75;;;1.17;;
55813;SDS011;65494;42.818;0.404;2023-11-19T06:25:26;2.45;;;1.00;;
55813;SDS011;65494;42.818;0.404;2023-11-19T06:27:54;1.90;;;0.80;;
55813;SDS011;65494;42.818;0.404;2023-11-19T06:30:20;1.20;;;0.90;;
55813;SDS011;65494;42.818;0.404;2023-11-19T06:32:46;2.20;;;1.25;;
55813;SDS011;65494;42.818;0.404;2023-11-19T06:35:26;1.80;;;1.20;;
55813;SDS011;65494;42.818;0.404;2023-11-19T06:38:03;1.42;;;0.82;;
55813;SDS011;65494;42.818;0.404;2023-11-19T06:43:11;1.80;;;0.90;;
55813;SDS011;65494;42.818;0.404;2023-11-19T06:45:39;1.27;;;0.98;;
55813;SDS011;65494;42.818;0.404;2023-11-19T06:48:05;13.32;;;6.40;;
55813;SDS011;65494;42.818;0.404;2023-11-19T06:50:32;24.25;;;11.27;;
55813;SDS011;65494;42.818;0.404;2023-11-19T06:52:58;21.13;;;7.97;;
55813;SDS011;65494;42.818;0.404;2023-11-19T06:55:25;11.18;;;5.22;;
55813;SDS011;65494;42.818;0.404;2023-11-19T06:57:52;13.45;;;5.50;;
55813;SDS011;65494;42.818;0.404;2023-11-19T07:00:18;9.32;;;4.43;;
55813;SDS011;65494;42.818;0.404;2023-11-19T07:02:45;7.55;;;3.67;;
55813;SDS011;65494;42.818;0.404;2023-11-19T07:05:11;6.72;;;2.60;;
55813;SDS011;65494;42.818;0.404;2023-11-19T07:07:38;5.03;;;1.48;;
55813;SDS011;65494;42.818;0.404;2023-11-19T07:10:10;6.25;;;3.40;;
55813;SDS011;65494;42.818;0.404;2023-11-19T07:12:57;4.07;;;1.63;;
55813;SDS011;65494;42.818;0.404;2023-11-19T07:15:23;1.90;;;1.10;;
55813;SDS011;65494;42.818;0.404;2023-11-19T07:17:49;3.28;;;1.45;;
55813;SDS011;65494;42.818;0.404;2023-11-19T07:20:24;5.25;;;2.38;;
55813;SDS011;65494;42.818;0.404;2023-11-19T07:28:51;1.88;;;0.75;;
55813;SDS011;65494;42.818;0.404;2023-11-19T07:31:51;4.95;;;2.75;;
55813;SDS011;65494;42.818;0.404;2023-11-19T08:07:50;6.00;;;3.00;;
55813;SDS011;65494;42.818;0.404;2023-11-19T08:10:18;8.15;;;2.88;;
55813;SDS011;65494;42.818;0.404;2023-11-19T08:12:45;5.45;;;2.75;;
55813;SDS011;65494;42.818;0.404;2023-11-19T08:15:11;4.40;;;2.15;;
55813;SDS011;65494;42.818;0.404;2023-11-19T08:17:37;3.95;;;1.52;;
55813;SDS011;65494;42.818;0.404;2023-11-19T08:20:03;5.65;;;1.65;;
55813;SDS011;65494;42.818;0.404;2023-11-19T08:22:30;3.90;;;1.90;;
55813;SDS011;65494;42.818;0.404;2023-11-19T08:24:56;10.18;;;3.17;;
55813;SDS011;65494;42.818;0.404;2023-11-19T08:27:22;5.43;;;2.03;;
55813;SDS011;65494;42.818;0.404;2023-11-19T08:29:55;3.65;;;1.92;;
55813;SDS011;65494;42.818;0.404;2023-11-19T08:32:22;4.47;;;1.85;;
55813;SDS011;65494;42.818;0.404;2023-11-19T08:34:48;5.40;;;2.15;;
55813;SDS011;65494;42.818;0.404;2023-11-19T08:37:15;4.90;;;1.70;;
55813;SDS011;65494;42.818;0.404;2023-11-19T08:39:43;4.28;;;1.10;;
55813;SDS011;65494;42.818;0.404;2023-11-19T08:42:09;3.10;;;1.40;;
55813;SDS011;65494;42.818;0.404;2023-11-19T08:44:35;2.88;;;1.23;;
55813;SDS011;65494;42.818;0.404;2023-11-19T08:47:02;6.38;;;1.02;;
55813;SDS011;65494;42.818;0.404;2023-11-19T08:49:28;3.92;;;1.23;;
55813;SDS011;65494;42.818;0.404;2023-11-19T08:51:54;2.95;;;1.20;;
55813;SDS011;65494;42.818;0.404;2023-11-19T08:54:21;2.78;;;1.45;;
55813;SDS011;65494;42.818;0.404;2023-11-19T08:56:48;2.72;;;1.05;;
55813;SDS011;65494;42.818;0.404;2023-11-19T08:59:15;2.17;;;1.10;;
55813;SDS011;65494;42.818;0.404;2023-11-19T09:01:41;5.85;;;1.20;;
55813;SDS011;65494;42.818;0.404;2023-11-19T09:04:08;4.65;;;1.35;;
55813;SDS011;65494;42.818;0.404;2023-11-19T09:06:35;2.83;;;1.48;;
55813;SDS011;65494;42.818;0.404;2023-11-19T09:09:01;6.03;;;1.20;;
55813;SDS011;65494;42.818;0.404;2023-11-19T09:11:30;1.33;;;0.80;;
55813;SDS011;65494;42.818;0.404;2023-11-19T09:13:56;1.73;;;0.80;;
55813;SDS011;65494;42.818;0.404;2023-11-19T09:16:23;1.70;;;1.00;;
55813;SDS011;65494;42.818;0.404;2023-11-19T09:18:49;1.13;;;0.70;;
55813;SDS011;65494;42.818;0.404;2023-11-19T09:21:15;3.08;;;0.70;;
55813;SDS011;65494;42.818;0.404;2023-11-19T09:23:41;0.82;;;0.45;;
55813;SDS011;65494;42.818;0.404;2023-11-19T09:26:08;1.00;;;0.50;;
55813;SDS011;65494;42.818;0.404;2023-11-19T09:28:38;1.73;;;0.63;;
55813;SDS011;65494;42.818;0.404;2023-11-19T09:31:17;0.65;;;0.30;;
55813;SDS011;65494;42.818;0.404;2023-11-19T09:33:43;1.27;;;0.60;;
55813;SDS011;65494;42.818;0.404;2023-11-19T09:36:13;2.70;;;0.55;;
55813;SDS011;65494;42.818;0.404;2023-11-19T09:38:40;2.20;;;0.80;;
55813;SDS011;65494;42.818;0.404;2023-11-19T09:41:06;3.35;;;0.70;;
55813;SDS011;65494;42.818;0.404;2023-11-19T09:43:37;0.47;;;0.32;;
55813;SDS011;65494;42.818;0.404;2023-11-19T09:46:07;2.47;;;0.60;;
55813;SDS011;65494;42.818;0.404;2023-11-19T09:48:36;0.90;;;0.50;;
55813;SDS011;65494;42.818;0.404;2023-11-19T09:51:04;1.65;;;0.70;;
55813;SDS011;65494;42.818;0.404;2023-11-19T09:53:30;2.25;;;0.65;;
55813;SDS011;65494;42.818;0.404;2023-11-19T09:55:57;1.38;;;0.70;;
55813;SDS011;65494;42.818;0.404;2023-11-19T09:58:26;1.52;;;0.80;;
55813;SDS011;65494;42.818;0.404;2023-11-19T10:00:52;3.25;;;0.73;;
55813;SDS011;65494;42.818;0.404;2023-11-19T10:03:18;1.23;;;0.60;;
55813;SDS011;65494;42.818;0.404;2023-11-19T10:05:44;0.77;;;0.52;;
55813;SDS011;65494;42.818;0.404;2023-11-19T10:08:10;1.45;;;0.85;;
55813;SDS011;65494;42.818;0.404;2023-11-19T10:10:37;1.10;;;0.60;;
55813;SDS011;65494;42.818;0.404;2023-11-19T10:13:03;2.10;;;0.88;;
55813;SDS011;65494;42.818;0.404;2023-11-19T10:15:29;1.95;;;0.80;;
55813;SDS011;65494;42.818;0.404;2023-11-19T10:17:58;1.23;;;0.40;;
55813;SDS011;65494;42.818;0.404;2023-11-19T10:20:25;0.70;;;0.50;;
55813;SDS011;65494;42.818;0.404;2023-11-19T10:22:54;2.15;;;0.60;;
55813;SDS011;65494;42.818;0.404;2023-11-19T10:25:27;1.13;;;0.45;;
55813;SDS011;65494;42.818;0.404;2023-11-19T10:27:54;0.77;;;0.47;;
55813;SDS011;65494;42.818;0.404;2023-11-19T10:30:30;0.65;;;0.50;;
55813;SDS011;65494;42.818;0.404;2023-11-19T10:35:31;3.92;;;0.57;;
55813;SDS011;65494;42.818;0.404;2023-11-19T10:37:58;1.15;;;0.55;;
55813;SDS011;65494;42.818;0.404;2023-11-19T10:40:37;0.30;;;0.30;;
55813;SDS011;65494;42.818;0.404;2023-11-19T10:43:04;1.02;;;0.30;;
55813;SDS011;65494;42.818;0.404;2023-11-19T10:45:32;1.35;;;0.30;;
55813;SDS011;65494;42.818;0.404;2023-11-19T10:47:59;1.23;;;0.30;;
55813;SDS011;65494;42.818;0.404;2023-11-19T10:50:26;3.70;;;0.40;;
55813;SDS011;65494;42.818;0.404;2023-11-19T10:52:56;0.52;;;0.20;;
55813;SDS011;65494;42.818;0.404;2023-11-19T10:55:34;0.82;;;0.35;;
55813;SDS011;65494;42.818;0.404;2023-11-19T10:58:04;7.43;;;2.83;;
55813;SDS011;65494;42.818;0.404;2023-11-19T11:00:35;3.70;;;1.85;;
55813;SDS011;65494;42.818;0.404;2023-11-19T11:03:05;3.95;;;2.53;;
55813;SDS011;65494;42.818;0.404;2023-11-19T11:05:35;1.85;;;1.10;;
55813;SDS011;65494;42.818;0.404;2023-11-19T11:08:04;0.70;;;0.40;;
55813;SDS011;65494;42.818;0.404;2023-11-19T11:10:32;3.50;;;0.40;;
55813;SDS011;65494;42.818;0.404;2023-11-19T11:13:02;0.38;;;0.28;;
55813;SDS011;65494;42.818;0.404;2023-11-19T11:15:29;1.60;;;0.30;;
55813;SDS011;65494;42.818;0.404;2023-11-19T11:17:57;1.85;;;0.20;;
55813;SDS011;65494;42.818;0.404;2023-11-19T11:20:26;2.33;;;0.20;;
55813;SDS011;65494;42.818;0.404;2023-11-19T11:23:19;1.58;;;0.20;;
55813;SDS011;65494;42.818;0.404;2023-11-19T11:25:52;0.82;;;0.30;;
55813;SDS011;65494;42.818;0.404;2023-11-19T11:33:34;0.30;;;0.28;;
55813;SDS011;65494;42.818;0.404;2023-11-19T11:36:06;0.30;;;0.20;;
55813;SDS011;65494;42.818;0.404;2023-11-19T11:38:37;0.20;;;0.20;;
55813;SDS011;65494;42.818;0.404;2023-11-19T11:43:59;2.72;;;1.77;;
55813;SDS011;65494;42.818;0.404;2023-11-19T11:46:53;0.57;;;0.40;;
55813;SDS011;65494;42.818;0.404;2023-11-19T11:49:14;2.30;;;0.90;;
55813;SDS011;65494;42.818;0.404;2023-11-19T11:54:11;0.57;;;0.30;;
55813;SDS011;65494;42.818;0.404;2023-11-19T11:56:37;1.92;;;0.47;;
55813;SDS011;65494;42.818;0.404;2023-11-19T11:59:18;1.10;;;0.32;;
55813;SDS011;65494;42.818;0.404;2023-11-19T12:01:59;1.88;;;0.30;;
55813;SDS011;65494;42.818;0.404;2023-11-19T12:04:26;1.30;;;0.30;;
55813;SDS011;65494;42.818;0.404;2023-11-19T12:09:36;0.40;;;0.40;;
55813;SDS011;65494;42.818;0.404;2023-11-19T12:15:22;1.55;;;0.70;;
55813;SDS011;65494;42.818;0.404;2023-11-19T12:20:07;0.77;;;0.50;;
55813;SDS011;65494;42.818;0.404;2023-11-19T12:22:43;1.63;;;0.35;;
55813;SDS011;65494;42.818;0.404;2023-11-19T12:25:16;2.20;;;0.47;;
55813;SDS011;65494;42.818;0.404;2023-11-19T12:27:46;1.17;;;0.45;;
55813;SDS011;65494;42.818;0.404;2023-11-19T12:30:12;1.85;;;0.30;;
55813;SDS011;65494;42.818;0.404;2023-11-19T12:32:41;0.73;;;0.40;;
55813;SDS011;65494;42.818;0.404;2023-11-19T12:35:08;0.77;;;0.50;;
55813;SDS011;65494;42.818;0.404;2023-11-19T12:37:40;3.13;;;0.75;;
55813;SDS011;65494;42.818;0.404;2023-11-19T12:42:39;0.60;;;0.47;;
55813;SDS011;65494;42.818;0.404;2023-11-19T12:45:12;0.55;;;0.30;;
55813;SDS011;65494;42.818;0.404;2023-11-19T12:47:39;2.28;;;0.47;;
55813;SDS011;65494;42.818;0.404;2023-11-19T12:50:06;0.52;;;0.52;;
55813;SDS011;65494;42.818;0.404;2023-11-19T12:52:33;0.50;;;0.30;;
55813;SDS011;65494;42.818;0.404;2023-11-19T12:54:59;2.35;;;0.38;;
55813;SDS011;65494;42.818;0.404;2023-11-19T12:57:35;2.25;;;0.50;;
55813;SDS011;65494;42.818;0.404;2023-11-19T13:00:03;0.65;;;0.30;;
55813;SDS011;65494;42.818;0.404;2023-11-19T13:02:44;3.80;;;0.40;;
55813;SDS011;65494;42.818;0.404;2023-11-19T13:05:30;0.52;;;0.30;;
55813;SDS011;65494;42.818;0.404;2023-11-19T13:07:58;1.27;;;0.55;;
55813;SDS011;65494;42.818;0.404;2023-11-19T13:10:26;0.47;;;0.28;;
55813;SDS011;65494;42.818;0.404;2023-11-19T13:13:02;0.43;;;0.40;;
55813;SDS011;65494;42.818;0.404;2023-11-19T13:15:29;1.00;;;0.70;;
55813;SDS011;65494;42.818;0.404;2023-11-19T13:17:55;2.00;;;0.47;;
55813;SDS011;65494;42.818;0.404;2023-11-19T13:20:21;1.17;;;0.65;;
55813;SDS011;65494;42.818;0.404;2023-11-19T13:25:40;0.52;;;0.30;;
55813;SDS011;65494;42.818;0.404;2023-11-19T13:28:06;3.35;;;1.00;;
55813;SDS011;65494;42.818;0.404;2023-11-19T13:30:32;3.50;;;2.03;;
55813;SDS011;65494;42.818;0.404;2023-11-19T13:32:58;1.95;;;0.30;;
55813;SDS011;65494;42.818;0.404;2023-11-19T13:35:25;1.20;;;0.68;;
55813;SDS011;65494;42.818;0.404;2023-11-19T13:37:53;4.82;;;1.65;;
55813;SDS011;65494;42.818;0.404;2023-11-19T13:40:19;4.25;;;1.05;;
55813;SDS011;65494;42.818;0.404;2023-11-19T13:42:47;2.92;;;0.60;;
55813;SDS011;65494;42.818;0.404;2023-11-19T13:45:14;8.88;;;1.27;;
55813;SDS011;65494;42.818;0.404;2023-11-19T13:47:41;10.25;;;2.33;;
55813;SDS011;65494;42.818;0.404;2023-11-19T13:50:08;5.70;;;2.33;;
55813;SDS011;65494;42.818;0.404;2023-11-19T13:52:35;3.40;;;1.10;;
55813;SDS011;65494;42.818;0.404;2023-11-19T13:55:03;2.30;;;0.80;;
55813;SDS011;65494;42.818;0.404;2023-11-19T13:57:30;2.20;;;0.60;;
55813;SDS011;65494;42.818;0.404;2023-11-19T13:59:56;2.22;;;0.50;;
55813;SDS011;65494;42.818;0.404;2023-11-19T14:02:22;2.15;;;0.85;;
55813;SDS011;65494;42.818;0.404;2023-11-19T14:04:48;1.38;;;0.70;;
55813;SDS011;65494;42.818;0.404;2023-11-19T14:07:15;1.33;;;0.60;;
55813;SDS011;65494;42.818;0.404;2023-11-19T14:09:44;4.47;;;0.68;;
55813;SDS011;65494;42.818;0.404;2023-11-19T14:12:10;3.42;;;0.70;;
55813;SDS011;65494;42.818;0.404;2023-11-19T14:14:38;1.65;;;0.55;;
55813;SDS011;65494;42.818;0.404;2023-11-19T14:17:04;2.50;;;0.60;;
55813;SDS011;65494;42.818;0.404;2023-11-19T14:19:30;4.13;;;0.88;;
55813;SDS011;65494;42.818;0.404;2023-11-19T14:22:06;1.45;;;0.80;;
55813;SDS011;65494;42.818;0.404;2023-11-19T14:24:36;1.13;;;0.55;;
55813;SDS011;65494;42.818;0.404;2023-11-19T14:27:03;1.30;;;0.50;;
55813;SDS011;65494;42.818;0.404;2023-11-19T14:29:29;2.15;;;0.50;;
55813;SDS011;65494;42.818;0.404;2023-11-19T14:31:55;1.55;;;0.60;;
55813;SDS011;65494;42.818;0.404;2023-11-19T14:34:32;5.50;;;0.52;;
55813;SDS011;65494;42.818;0.404;2023-11-19T14:36:58;1.77;;;0.52;;
55813;SDS011;65494;42.818;0.404;2023-11-19T14:39:25;1.70;;;0.55;;
55813;SDS011;65494;42.818;0.404;2023-11-19T14:41:51;2.13;;;0.80;;
55813;SDS011;65494;42.818;0.404;2023-11-19T14:44:18;2.53;;;0.95;;
55813;SDS011;65494;42.818;0.404;2023-11-19T14:46:46;0.75;;;0.55;;
55813;SDS011;65494;42.818;0.404;2023-11-19T14:49:12;3.55;;;0.55;;
55813;SDS011;65494;42.818;0.404;2023-11-19T14:51:39;1.40;;;0.70;;
55813;SDS011;65494;42.818;0.404;2023-11-19T14:54:05;2.58;;;0.57;;
55813;SDS011;65494;42.818;0.404;2023-11-19T14:56:32;1.90;;;0.80;;
55813;SDS011;65494;42.818;0.404;2023-11-19T14:58:58;1.83;;;0.80;;
55813;SDS011;65494;42.818;0.404;2023-11-19T15:01:24;1.27;;;0.70;;
55813;SDS011;65494;42.818;0.404;2023-11-19T15:03:50;1.83;;;0.60;;
55813;SDS011;65494;42.818;0.404;2023-11-19T15:06:16;1.38;;;0.70;;
55813;SDS011;65494;42.818;0.404;2023-11-19T15:08:42;9.13;;;0.70;;
55813;SDS011;65494;42.818;0.404;2023-11-19T15:11:09;2.67;;;1.00;;
55813;SDS011;65494;42.818;0.404;2023-11-19T15:13:36;2.63;;;0.80;;
55813;SDS011;65494;42.818;0.404;2023-11-19T15:16:05;1.85;;;0.70;;
55813;SDS011;65494;42.818;0.404;2023-11-19T15:18:36;2.47;;;0.90;;
55813;SDS011;65494;42.818;0.404;2023-11-19T15:21:03;1.58;;;0.90;;
55813;SDS011;65494;42.818;0.404;2023-11-19T15:23:29;3.38;;;1.25;;
55813;SDS011;65494;42.818;0.404;2023-11-19T15:25:55;2.78;;;1.30;;
55813;SDS011;65494;42.818;0.404;2023-11-19T15:28:21;2.67;;;1.40;;
55813;SDS011;65494;42.818;0.404;2023-11-19T15:30:48;18.17;;;6.13;;
55813;SDS011;65494;42.818;0.404;2023-11-19T15:33:14;12.32;;;3.72;;
55813;SDS011;65494;42.818;0.404;2023-11-19T15:35:40;3.40;;;1.45;;
55813;SDS011;65494;42.818;0.404;2023-11-19T15:38:06;3.13;;;1.33;;
55813;SDS011;65494;42.818;0.404;2023-11-19T15:40:34;7.45;;;3.08;;
55813;SDS011;65494;42.818;0.404;2023-11-19T15:43:02;3.53;;;1.33;;
55813;SDS011;65494;42.818;0.404;2023-11-19T15:45:28;3.05;;;0.90;;
55813;SDS011;65494;42.818;0.404;2023-11-19T15:47:54;4.88;;;1.70;;
55813;SDS011;65494;42.818;0.404;2023-11-19T15:50:20;5.28;;;2.30;;
55813;SDS011;65494;42.818;0.404;2023-11-19T15:52:46;6.00;;;1.90;;
55813;SDS011;65494;42.818;0.404;2023-11-19T15:55:13;1.52;;;1.10;;
55813;SDS011;65494;42.818;0.404;2023-11-19T15:57:39;1.73;;;0.95;;
55813;SDS011;65494;42.818;0.404;2023-11-19T16:00:05;3.88;;;1.40;;